Aviation Digital Data Service (ADDS)

Output produced by METARs form (0941 UTC 22 September 2017)
found at http://www.aviationweather.gov/adds/metars/
 
KFIG 220854Z AUTO 00000KT 10SM CLR 14/14 A3014 RMK AO2 SLP199 T01390139 55001
KFIG 220754Z AUTO 00000KT 10SM CLR 14/14 A3014 RMK AO2 SLP197 T01440139
KFIG 220654Z AUTO 33003KT 10SM CLR 15/14 A3014 RMK AO2 SLP199 T01500144
KFIG 220554Z AUTO 33004KT 10SM CLR 15/14 A3015 RMK AO2 SLP200 T01500144 10200 20144 52002
KFIG 220454Z AUTO 34004KT 10SM CLR 15/13 A3014 RMK AO2 SLP200 T01500133 402890122 TSNO
KFIG 220354Z AUTO 00000KT 10SM CLR 17/14 A3014 RMK AO2 SLP199 T01670144
KFIG 220254Z AUTO 00000KT 10SM CLR 17/13 A3014 RMK AO2 SLP200 T01720133 51010
KFIG 220154Z AUTO 34003KT 10SM CLR 18/13 A3014 RMK AO2 SLP202 T01830133
KFIG 220054Z AUTO 35004KT 10SM CLR 18/14 A3012 RMK AO2 SLP198 T01830144
KFIG 212354Z AUTO 35007KT 10SM CLR 20/15 A3011 RMK AO2 SLP193 T02000150 10289 20200 53003
KFIG 212254Z AUTO 35005KT 10SM CLR 23/14 A3011 RMK AO2 SLP191 T02330139
KFIG 212154Z AUTO 33004KT 10SM CLR 27/12 A3010 RMK AO2 SLP186 T02720117
KFIG 212054Z AUTO 32005KT 10SM CLR 28/11 A3010 RMK AO2 SLP185 T02830111 56007
KFIG 211954Z AUTO 27003KT 10SM CLR 28/11 A3011 RMK AO2 SLP186 T02830106
KFIG 211854Z AUTO 31005KT 10SM CLR 28/12 A3012 RMK AO2 SLP190 T02830117
KFIG 211754Z AUTO 00000KT 10SM CLR 28/13 A3012 RMK AO2 SLP191 T02830128 10283 20128 58010
KFIG 211654Z AUTO VRB04KT 10SM CLR 26/16 A3014 RMK AO2 SLP198 T02610156
KFIG 211554Z AUTO 00000KT 10SM CLR 25/17 A3015 RMK AO2 SLP201 T02500167
KFIG 211454Z AUTO 21003KT 10SM CLR 21/17 A3015 RMK AO2 SLP206 T02110167 53004
KFIG 211404Z AUTO 00000KT 10SM SCT002 17/17 A3015 RMK AO2 T01670167
KFIG 211354Z AUTO 00000KT 7SM BKN002 16/16 A3015 RMK AO2 SLP207 T01610161
KFIG 211346Z AUTO 00000KT 3SM BR BKN002 16/16 A3015 RMK AO2 T01560156
KFIG 211341Z AUTO 00000KT 1SM BR VV002 16/16 A3015 RMK AO2 T01560156
KFIG 211254Z AUTO 00000KT M1/4SM FG VV002 14/14 A3014 RMK AO2 SLP204 T01390139
KFIG 211204Z AUTO 00000KT 1/4SM FG VV002 13/13 A3014 RMK AO2 T01280128
KFIG 211154Z AUTO 00000KT 1/2SM FG VV002 13/13 A3014 RMK AO2 SLP203 T01280128 10150 20122 51006
KFIG 211054Z AUTO 00000KT 1/4SM FG VV002 12/12 A3014 RMK AO2 SLP201 T01220122
KFIG 211047Z AUTO 00000KT 1/4SM FG VV002 12/12 A3014 RMK AO2 T01220122
KFIG 211039Z AUTO 00000KT 1/2SM FG VV002 13/13 A3014 RMK AO2 T01280128
KFIG 211033Z AUTO 00000KT 2SM BR BKN002 13/13 A3014 RMK AO2 VIS 3/4V5 T01330133
KFIG 211029Z AUTO 00000KT 3/4SM BR VV002 13/13 A3014 RMK AO2 T01330133
KFIG 210954Z AUTO 00000KT 1/4SM FG VV002 13/13 A3013 RMK AO2 SLP197 T01330133
KFIG 210949Z AUTO 00000KT 3/4SM BR VV002 13/13 A3013 RMK AO2
KFIG 210946Z AUTO 00000KT 1 3/4SM BR SCT002 13/13 A3013 RMK AO2 T01330133
KFIG 210937Z AUTO 00000KT 6SM BR FEW002 13/13 A3013 RMK AO2 T01330133
KFIG 210925Z AUTO 00000KT 3SM BR BKN002 14/14 A3013 RMK AO2 T01390139
KFIG 210918Z AUTO 22003KT 1SM BR VV002 13/13 A3013 RMK AO2 T01330133
KFIG 210904Z AUTO 24003KT 1/4SM FG VV002 13/13 A3013 RMK AO2 T01330133
KFIG 210854Z AUTO 00000KT 1 3/4SM BR BKN002 14/13 A3012 RMK AO2 VIS 3/4V5 SLP192 T01390133 51009
KFIG 210851Z AUTO 00000KT 5SM BR SCT002 14/13 A3012 RMK AO2
KFIG 210754Z AUTO 00000KT 10SM CLR 14/14 A3012 RMK AO2 SLP190 T01440139
KFIG 210654Z AUTO 36003KT 10SM CLR 14/14 A3010 RMK AO2 SLP182 T01440139
KFIG 210554Z AUTO 01003KT 10SM CLR 16/14 A3008 RMK AO2 SLP179 T01560139 10211 20144 53003
KFIG 210454Z AUTO 00000KT 10SM CLR 16/14 A3008 RMK AO2 SLP176 T01560139 402890117
KFIG 210354Z AUTO 35007KT 10SM CLR 16/14 A3008 RMK AO2 SLP179 T01610139
KFIG 210254Z AUTO 35005KT 10SM CLR 17/14 A3008 RMK AO2 SLP181 T01670139 51015
KFIG 210154Z AUTO 34004KT 10SM CLR 18/14 A3007 RMK AO2 SLP177 T01830144
KFIG 210054Z AUTO 35004KT 10SM CLR 19/16 A3005 RMK AO2 SLP170 T01890156
KFIG 202354Z AUTO 35005KT 10SM CLR 21/16 A3003 RMK AO2 SLP165 T02110161 10289 20211 53006
KFIG 202254Z AUTO 34003KT 10SM CLR 25/15 A3002 RMK AO2 SLP160 T02500150
KFIG 202154Z AUTO 35005KT 10SM CLR 28/13 A3002 RMK AO2 SLP157 T02780133